Waynesville-St. Robert Regional Forney field Fort Leonard Wood US
ICAO: KTBN
IATA: TBN
Category: Medium
Scheduled Services: Yes

Elevation: 1159 ft
TransAlt. 18000 ft.

Airport Communications:
ATIS:118.7
KANSAS CITY CNTR:133.8
CTAF:125.4
FORNEY TWR:125.4

KTBN Zoom In..

If Map Doesn't Load, Click Here

Runways:

(A) RW 14 length 6038 ft width 150 ft
ILS 110.90 / hdg 144

(B) RW 32 length 6038 ft width 150 ft
---- / hdg 324

Location; KTBN
Day. 24 / Time. 04.56 Zulu
* Altimeter: 30.01
* Temperature: 20° c. 68°f.
* Wind from: KTB° Speed N kn.
Dewpoint: 18° c.
Visibility: 10 Statute Miles.
Clouds: Overcast 2400 ft.

KTBN 240456Z AUTO 00000KT 10SM OVC024 20/18 A3001 RMK AO2 CIG 023 RWY14 SLP158 T01970176 $


Wind From KTB°
Speed N kn.

 
 
jpsmedia.com for Web Design worldairports.se 2018   terms of use